Time;durP1;ratioP1;P1;durP2;ratioP2;P2;SDS_P1;SDS_P2;PMS_P1;PMS_P2;Temp;Humidity;BMP_temperature;BMP_pressure;BME280_temperature;BME280_humidity;BME280_pressure;Samples;Min_cycle;Max_cycle;Signal;HPM_P1;HPM_P2
2022/04/28 00:00:52;;;;;;;12.13;4.13;;;9.70;98.80;;;;;;5134109;27;20043;-72
2022/04/28 00:03:17;;;;;;;16.87;4.23;;;9.70;99.00;;;;;;5135259;27;20517;-71
2022/04/28 00:05:43;;;;;;;15.63;4.33;;;9.70;99.00;;;;;;5134036;27;20332;-72
2022/04/28 00:08:09;;;;;;;10.70;3.53;;;9.60;99.20;;;;;;5135349;27;20047;-72
2022/04/28 00:10:37;;;;;;;11.33;4.03;;;9.60;99.20;;;;;;5133694;27;20302;-72
2022/04/28 00:13:04;;;;;;;8.87;3.50;;;9.60;99.20;;;;;;5135168;27;20364;-72
2022/04/28 00:15:30;;;;;;;12.00;4.27;;;9.60;99.90;;;;;;5117110;27;20281;-72
2022/04/28 00:17:56;;;;;;;10.37;3.77;;;9.60;99.90;;;;;;5134863;27;20295;-72
2022/04/28 00:20:22;;;;;;;10.97;4.07;;;9.60;99.90;;;;;;5135215;27;20065;-72
2022/04/28 00:22:48;;;;;;;9.93;3.90;;;9.70;99.80;;;;;;5134806;27;20740;-72
2022/04/28 00:25:14;;;;;;;9.40;4.00;;;9.80;99.40;;;;;;5134932;27;20061;-72
2022/04/28 00:27:39;;;;;;;12.07;4.10;;;9.80;99.30;;;;;;5133398;27;20292;-72
2022/04/28 00:30:07;;;;;;;11.67;4.00;;;9.80;99.00;;;;;;5134602;27;20031;-72
2022/04/28 00:32:33;;;;;;;12.50;3.70;;;9.80;98.70;;;;;;5134594;27;20066;-75
2022/04/28 00:34:59;;;;;;;9.13;3.30;;;9.80;98.40;;;;;;5134434;27;20752;-72
2022/04/28 00:37:25;;;;;;;12.53;3.60;;;9.80;98.20;;;;;;5134833;27;20354;-72
2022/04/28 00:39:51;;;;;;;9.33;2.77;;;9.70;97.70;;;;;;5134391;27;20043;-72
2022/04/28 00:42:17;;;;;;;9.40;3.03;;;9.70;97.50;;;;;;5133456;27;20043;-72
2022/04/28 00:44:44;;;;;;;8.40;2.90;;;9.70;97.50;;;;;;5133321;27;20348;-72
2022/04/28 00:47:10;;;;;;;11.33;2.70;;;9.70;97.20;;;;;;5134445;27;20748;-72
2022/04/28 00:52:22;;;;;;;11.65;2.70;;;9.60;97.10;;;;;;5134329;27;20330;-72
2022/04/28 00:54:50;;;;;;;8.77;2.87;;;9.60;97.00;;;;;;5134130;27;20047;-72
2022/04/28 00:57:17;;;;;;;11.50;2.70;;;9.60;96.70;;;;;;5134540;27;20372;-72
2022/04/28 00:59:46;;;;;;;11.23;3.30;;;9.50;96.70;;;;;;5134131;27;20272;-72
2022/04/28 01:02:11;;;;;;;12.43;3.03;;;9.50;97.20;;;;;;5134369;27;20316;-72
2022/04/28 01:04:38;;;;;;;11.60;3.37;;;9.40;97.20;;;;;;5133617;27;20308;-73
2022/04/28 01:07:05;;;;;;;8.53;3.00;;;9.40;97.40;;;;;;5134343;27;20108;-72
2022/04/28 01:09:36;;;;;;;11.07;3.00;;;9.40;97.70;;;;;;5134320;27;20337;-72
2022/04/28 01:12:14;;;;;;;13.57;3.10;;;9.40;97.70;;;;;;5134156;27;20272;-72
2022/04/28 01:14:44;;;;;;;8.00;2.27;;;9.40;97.40;;;;;;5134039;27;20349;-72
2022/04/28 01:17:10;;;;;;;10.67;2.50;;;9.30;97.50;;;;;;5134378;27;20269;-72
2022/04/28 01:19:36;;;;;;;11.57;2.80;;;9.30;97.20;;;;;;5134262;27;20273;-72
2022/04/28 01:22:03;;;;;;;11.73;3.17;;;9.30;97.30;;;;;;5133699;27;20843;-72
2022/04/28 01:24:30;;;;;;;12.50;2.93;;;9.30;96.90;;;;;;5134011;27;20043;-72
2022/04/28 01:26:58;;;;;;;10.80;2.43;;;9.20;96.60;;;;;;5133626;27;20292;-72
2022/04/28 01:29:24;;;;;;;10.70;3.43;;;9.20;96.70;;;;;;5133909;27;20276;-72
2022/04/28 01:31:50;;;;;;;11.67;2.60;;;9.20;96.90;;;;;;5133601;27;20287;-72
2022/04/28 01:34:15;;;;;;;11.10;2.47;;;9.20;97.20;;;;;;5134225;27;20126;-72
2022/04/28 01:36:41;;;;;;;10.80;2.90;;;9.20;97.10;;;;;;5132303;28;20491;-72
2022/04/28 01:39:10;;;;;;;8.33;2.87;;;9.20;97.20;;;;;;5133895;27;20051;-72
2022/04/28 01:41:36;;;;;;;9.67;2.53;;;9.20;96.80;;;;;;5133834;27;20043;-72
2022/04/28 01:44:02;;;;;;;9.40;2.30;;;9.10;96.60;;;;;;5133450;27;20277;-72
2022/04/28 01:46:29;;;;;;;9.52;2.38;;;9.20;96.90;;;;;;5133868;27;20701;-72
2022/04/28 01:48:55;;;;;;;9.07;2.30;;;9.20;96.70;;;;;;5132834;27;20051;-72
2022/04/28 01:56:50;;;;;;;8.87;2.30;;;9.10;95.30;;;;;;5133447;28;20283;-72
2022/04/28 01:59:15;;;;;;;12.13;2.23;;;9.00;95.80;;;;;;5133703;27;20276;-72
2022/04/28 02:01:41;;;;;;;11.87;2.83;;;9.00;95.80;;;;;;5133632;27;20066;-72
2022/04/28 02:04:07;;;;;;;10.07;2.50;;;9.00;95.80;;;;;;5133593;27;20121;-72
2022/04/28 02:06:32;;;;;;;11.87;2.90;;;9.10;95.70;;;;;;5137932;27;20039;-72
2022/04/28 02:08:59;;;;;;;11.80;3.17;;;9.10;95.60;;;;;;5137365;27;20479;-72
2022/04/28 02:11:25;;;;;;;10.40;2.93;;;9.10;95.70;;;;;;5136382;27;20138;-72
2022/04/28 02:13:51;;;;;;;9.57;2.97;;;9.20;95.60;;;;;;5137246;27;20318;-72
2022/04/28 02:16:17;;;;;;;10.13;3.07;;;9.20;95.80;;;;;;5137475;27;20217;-72
2022/04/28 02:18:43;;;;;;;13.37;2.97;;;9.30;95.60;;;;;;5137448;27;20498;-72
2022/04/28 02:21:09;;;;;;;7.70;2.20;;;9.30;95.60;;;;;;5136315;27;20323;-72
2022/04/28 02:23:34;;;;;;;6.63;2.03;;;9.40;95.30;;;;;;5137423;27;20504;-72
2022/04/28 02:26:00;;;;;;;8.70;2.43;;;9.40;95.20;;;;;;5135732;27;20051;-72
2022/04/28 02:28:26;;;;;;;7.23;1.93;;;9.40;95.00;;;;;;5136325;27;20039;-72
2022/04/28 02:30:52;;;;;;;14.27;3.40;;;9.40;94.60;;;;;;5136948;27;20074;-72
2022/04/28 02:33:19;;;;;;;12.00;2.70;;;9.50;94.60;;;;;;5137559;27;20471;-72
2022/04/28 02:35:45;;;;;;;10.00;2.80;;;9.50;94.50;;;;;;5135991;27;20039;-72
2022/04/28 02:38:10;;;;;;;9.17;2.67;;;9.50;94.20;;;;;;5136914;27;20292;-72
2022/04/28 02:40:36;;;;;;;8.17;2.40;;;9.50;94.20;;;;;;5137159;27;20284;-72
2022/04/28 02:43:02;;;;;;;8.90;2.50;;;9.50;94.20;;;;;;5136724;27;20051;-72
2022/04/28 02:45:28;;;;;;;10.77;2.90;;;9.50;94.30;;;;;;5135715;27;20075;-72
2022/04/28 02:47:53;;;;;;;10.13;2.60;;;9.50;94.50;;;;;;5136580;27;20111;-72
2022/04/28 02:50:21;;;;;;;11.70;3.03;;;9.50;94.80;;;;;;5137004;27;20102;-72
2022/04/28 02:52:49;;;;;;;8.93;2.90;;;9.50;94.40;;;;;;5136665;27;20047;-77
2022/04/28 02:55:15;;;;;;;12.30;2.80;;;9.40;94.80;;;;;;5135929;27;20288;-72
2022/04/28 02:57:41;;;;;;;11.37;2.50;;;9.40;95.40;;;;;;5136666;27;20757;-72
2022/04/28 03:00:07;;;;;;;9.53;2.50;;;9.40;95.50;;;;;;5136371;27;20043;-72
2022/04/28 03:02:33;;;;;;;11.00;2.77;;;9.50;95.50;;;;;;5136649;27;20273;-72
2022/04/28 03:05:01;;;;;;;9.53;3.10;;;9.40;95.70;;;;;;5135925;27;20276;-72
2022/04/28 03:12:58;;;;;;;8.47;2.43;;;9.40;96.20;;;;;;5136129;27;20269;-73
2022/04/28 03:15:25;;;;;;;11.87;2.87;;;9.40;96.50;;;;;;5136513;27;20612;-72
2022/04/28 03:17:50;;;;;;;9.33;3.17;;;9.40;96.60;;;;;;5136007;27;20050;-75
2022/04/28 03:20:16;;;;;;;10.77;2.50;;;9.40;97.20;;;;;;5135972;27;20782;-72
2022/04/28 03:22:43;;;;;;;8.20;2.47;;;9.30;97.30;;;;;;5136228;27;20050;-72
2022/04/28 03:25:10;;;;;;;8.77;2.83;;;9.30;97.60;;;;;;5135934;27;20051;-73
2022/04/28 03:27:36;;;;;;;13.03;3.50;;;9.30;97.20;;;;;;5135173;27;20288;-72
2022/04/28 03:30:03;;;;;;;9.47;3.10;;;9.30;97.10;;;;;;5135784;27;20277;-72
2022/04/28 03:32:28;;;;;;;8.30;2.90;;;9.20;96.90;;;;;;5136004;27;20302;-72
2022/04/28 03:34:54;;;;;;;12.37;3.80;;;9.20;97.10;;;;;;5135827;27;20269;-72
2022/04/28 03:37:20;;;;;;;9.87;2.90;;;9.20;97.30;;;;;;5135916;27;20039;-72
2022/04/28 03:39:45;;;;;;;12.93;3.53;;;9.30;97.80;;;;;;5135885;27;20519;-72
2022/04/28 03:42:11;;;;;;;9.30;2.70;;;9.30;97.60;;;;;;5134347;27;20079;-72
2022/04/28 03:44:37;;;;;;;11.37;3.60;;;9.30;97.90;;;;;;5134784;27;20059;-72
2022/04/28 03:47:03;;;;;;;12.30;3.20;;;9.30;98.40;;;;;;5135456;27;20039;-72
2022/04/28 03:49:29;;;;;;;10.30;3.10;;;9.30;98.50;;;;;;5135233;27;20051;-72
2022/04/28 03:51:55;;;;;;;9.07;2.60;;;9.30;98.40;;;;;;5135239;27;20748;-73
2022/04/28 03:54:21;;;;;;;14.03;3.30;;;9.40;98.60;;;;;;5135670;27;20046;-72
2022/04/28 03:56:47;;;;;;;12.23;3.83;;;9.40;98.90;;;;;;5134640;27;20051;-72
2022/04/28 03:59:14;;;;;;;10.10;3.27;;;9.30;99.40;;;;;;5135243;27;20277;-72
2022/04/28 04:01:39;;;;;;;10.80;3.33;;;9.40;99.40;;;;;;5135484;27;20273;-72
2022/04/28 04:04:05;;;;;;;10.83;3.00;;;9.30;99.50;;;;;;5117044;27;20292;-72
2022/04/28 04:06:31;;;;;;;12.30;3.30;;;9.30;99.90;;;;;;5135308;27;20457;-72
2022/04/28 04:08:57;;;;;;;10.07;3.30;;;9.30;99.90;;;;;;5135219;27;20169;-72
2022/04/28 04:11:23;;;;;;;10.87;3.77;;;9.30;99.90;;;;;;5135263;27;20376;-72
2022/04/28 04:13:50;;;;;;;11.07;2.90;;;9.30;99.90;;;;;;5135207;27;20648;-72
2022/04/28 04:16:15;;;;;;;10.60;3.30;;;9.30;99.90;;;;;;5133888;27;21130;-72
2022/04/28 04:18:41;;;;;;;10.40;3.20;;;9.30;99.90;;;;;;5135399;27;20273;-72
2022/04/28 04:21:07;;;;;;;11.50;3.10;;;9.30;99.90;;;;;;5134815;27;20123;-72
2022/04/28 04:23:33;;;;;;;8.60;3.53;;;9.30;99.90;;;;;;5135187;27;20050;-72
2022/04/28 04:26:00;;;;;;;10.70;3.63;;;9.30;99.90;;;;;;5133249;27;20677;-72
2022/04/28 04:28:25;;;;;;;14.23;3.87;;;9.30;99.90;;;;;;5133644;27;20050;-72
2022/04/28 04:33:36;;;;;;;12.60;3.93;;;9.30;99.90;;;;;;5134860;27;20058;-72
2022/04/28 04:36:03;;;;;;;9.30;3.23;;;9.30;99.90;;;;;;5134596;27;20649;-72
2022/04/28 04:38:29;;;;;;;11.93;3.50;;;9.30;99.90;;;;;;5133666;27;20292;-72
2022/04/28 04:40:54;;;;;;;10.40;3.73;;;9.30;99.90;;;;;;5134649;27;20280;-72
2022/04/28 04:43:20;;;;;;;9.83;3.37;;;9.30;99.90;;;;;;5134338;27;20035;-72
2022/04/28 04:45:46;;;;;;;10.17;3.83;;;9.30;99.90;;;;;;5133754;27;20152;-72
2022/04/28 04:48:12;;;;;;;8.60;3.57;;;9.30;99.90;;;;;;5134085;27;20082;-72
2022/04/28 04:50:39;;;;;;;15.37;4.23;;;9.30;99.90;;;;;;5133169;27;20059;-71
2022/04/28 04:53:06;;;;;;;6.67;2.97;;;9.30;99.90;;;;;;5134195;27;20281;-72
2022/04/28 04:55:33;;;;;;;9.47;4.30;;;9.30;99.90;;;;;;5134640;27;20687;-72
2022/04/28 04:57:59;;;;;;;9.90;3.47;;;9.30;99.90;;;;;;5134663;27;20280;-71
2022/04/28 05:00:25;;;;;;;10.77;3.53;;;9.30;99.90;;;;;;5134316;27;20334;-71
2022/04/28 05:02:51;;;;;;;11.70;3.87;;;9.40;99.90;;;;;;5133069;27;20288;-71
2022/04/28 05:05:16;;;;;;;12.93;3.70;;;9.40;99.90;;;;;;5133953;27;20284;-72
2022/04/28 05:07:42;;;;;;;10.47;3.83;;;9.40;99.90;;;;;;5134135;27;20478;-71
2022/04/28 05:10:09;;;;;;;10.97;3.90;;;9.40;99.90;;;;;;5133657;27;20093;-72
2022/04/28 05:12:35;;;;;;;12.50;3.70;;;9.40;99.90;;;;;;5133817;27;20047;-72
2022/04/28 05:15:01;;;;;;;11.80;3.80;;;9.50;99.90;;;;;;5133793;27;20272;-71
2022/04/28 05:17:26;;;;;;;14.20;4.97;;;9.50;99.90;;;;;;5133648;27;20031;-71
2022/04/28 05:19:52;;;;;;;11.83;4.07;;;9.50;99.90;;;;;;5133749;27;20506;-72
2022/04/28 05:22:18;;;;;;;11.53;4.83;;;9.40;99.90;;;;;;5133419;27;20483;-72
2022/04/28 05:24:44;;;;;;;16.00;4.47;;;9.40;99.90;;;;;;5133716;27;20281;-72
2022/04/28 05:27:10;;;;;;;9.13;3.90;;;9.40;99.90;;;;;;5133314;27;20039;-72
2022/04/28 05:29:36;;;;;;;20.77;5.07;;;9.40;99.90;;;;;;5133802;27;20051;-72
2022/04/28 05:32:01;;;;;;;14.07;4.43;;;9.40;99.90;;;;;;5132487;27;20300;-72
2022/04/28 05:34:27;;;;;;;14.33;4.70;;;9.40;99.90;;;;;;5132211;28;20055;-72
2022/04/28 05:36:53;;;;;;;11.03;4.50;;;9.40;99.90;;;;;;5133897;27;20059;-72
2022/04/28 05:39:19;;;;;;;12.70;4.03;;;9.30;99.90;;;;;;5136065;27;20047;-72
2022/04/28 05:41:45;;;;;;;15.10;4.17;;;9.30;99.90;;;;;;5138054;27;20050;-72
2022/04/28 05:46:54;;;;;;;14.40;4.70;;;9.30;99.90;;;;;;5137021;27;20051;-72
2022/04/28 05:49:21;;;;;;;17.50;5.07;;;9.40;99.90;;;;;;5137495;27;20281;-72
2022/04/28 05:51:48;;;;;;;15.40;4.23;;;9.40;99.90;;;;;;5137959;27;20125;-72
2022/04/28 05:54:15;;;;;;;11.90;4.23;;;9.30;99.90;;;;;;5137613;27;20285;-72
2022/04/28 05:56:42;;;;;;;12.43;4.33;;;9.30;99.90;;;;;;5137037;27;20325;-72
2022/04/28 05:59:10;;;;;;;15.30;4.50;;;9.30;99.90;;;;;;5137401;27;20776;-72
2022/04/28 06:01:37;;;;;;;10.80;3.33;;;9.30;99.90;;;;;;5137876;27;20327;-72
2022/04/28 06:04:04;;;;;;;14.77;3.47;;;9.40;99.90;;;;;;5137611;27;20779;-72
2022/04/28 06:06:30;;;;;;;10.73;3.87;;;9.40;99.90;;;;;;5137251;27;20292;-72
2022/04/28 06:08:55;;;;;;;14.80;3.97;;;9.40;99.90;;;;;;5137215;27;20272;-71
2022/04/28 06:11:21;;;;;;;11.03;2.80;;;9.60;99.90;;;;;;5137440;27;20126;-72
2022/04/28 06:13:47;;;;;;;15.13;3.40;;;9.80;99.90;;;;;;5137657;27;20039;-71
2022/04/28 06:16:12;;;;;;;12.60;3.20;;;10.00;99.90;;;;;;5137621;27;20462;-71
2022/04/28 06:18:39;;;;;;;9.83;2.60;;;10.10;99.90;;;;;;5137499;27;20043;-71
2022/04/28 06:21:05;;;;;;;8.73;2.30;;;10.40;99.90;;;;;;5119512;27;20055;-72
2022/04/28 06:23:30;;;;;;;8.50;2.33;;;11.70;99.90;;;;;;5137089;27;20276;-72
2022/04/28 06:25:56;;;;;;;9.77;2.57;;;13.20;99.90;;;;;;5137532;27;20043;-72
2022/04/28 06:28:22;;;;;;;14.17;2.33;;;14.20;99.90;;;;;;5135851;27;20035;-72
2022/04/28 06:30:47;;;;;;;9.00;2.17;;;14.50;94.90;;;;;;5137317;27;20043;-72
2022/04/28 06:33:13;;;;;;;11.80;2.53;;;14.50;93.30;;;;;;5136943;27;20058;-72
2022/04/28 06:35:39;;;;;;;12.10;2.60;;;14.70;92.10;;;;;;5137310;27;20039;-72
2022/04/28 06:38:04;;;;;;;9.93;2.00;;;14.40;90.70;;;;;;5136122;27;20051;-72
2022/04/28 06:40:30;;;;;;;7.93;2.17;;;13.60;90.70;;;;;;5136819;27;20127;-72
2022/04/28 06:42:56;;;;;;;10.77;2.90;;;13.60;92.50;;;;;;5137024;27;20055;-72
2022/04/28 06:45:23;;;;;;;14.83;2.83;;;14.60;93.00;;;;;;5136480;27;20047;-72
2022/04/28 06:47:49;;;;;;;9.90;2.40;;;;;;;;;;5136924;27;20045;-72
2022/04/28 06:50:15;;;;;;;10.70;2.10;;;15.10;78.00;;;;;;5135937;27;20284;-72
2022/04/28 06:52:41;;;;;;;10.03;2.40;;;15.80;73.90;;;;;;5136759;27;20337;-72
2022/04/28 06:55:09;;;;;;;9.70;2.67;;;16.70;73.80;;;;;;5136783;27;20046;-72
2022/04/28 06:57:36;;;;;;;9.53;2.63;;;;;;;;;;5136395;27;20273;-72
2022/04/28 07:00:03;;;;;;;8.07;2.17;;;;;;;;;;5136688;27;20312;-72
2022/04/28 07:02:30;;;;;;;8.73;2.43;;;17.40;94.00;;;;;;5136307;27;20277;-72
2022/04/28 07:04:56;;;;;;;14.70;3.43;;;16.50;60.00;;;;;;5136616;27;20360;-70
2022/04/28 07:07:22;;;;;;;10.90;2.67;;;15.50;61.50;;;;;;5135589;27;20289;-71
2022/04/28 07:09:48;;;;;;;10.00;2.57;;;14.60;65.60;;;;;;5135970;27;20281;-72
2022/04/28 07:12:14;;;;;;;10.30;2.30;;;14.10;66.90;;;;;;5135785;27;20099;-73
2022/04/28 07:14:40;;;;;;;7.23;2.30;;;13.80;74.40;;;;;;5136329;27;20281;-71
2022/04/28 07:17:06;;;;;;;9.80;2.50;;;13.20;77.40;;;;;;5136380;27;20043;-71
2022/04/28 07:19:32;;;;;;;9.07;2.17;;;;;;;;;;5136028;27;20287;-71
2022/04/28 07:22:02;;;;;;;9.17;2.43;;;12.70;81.50;;;;;;5136258;27;20086;-71
2022/04/28 07:24:29;;;;;;;9.23;2.07;;;12.60;82.80;;;;;;5117807;27;20281;-71
2022/04/28 07:26:55;;;;;;;9.93;2.30;;;12.40;85.60;;;;;;5136184;27;20328;-71
2022/04/28 07:29:20;;;;;;;11.87;2.37;;;12.30;87.60;;;;;;5135847;27;20281;-71
2022/04/28 07:31:46;;;;;;;11.13;2.43;;;12.10;90.00;;;;;;5136202;27;20083;-71
2022/04/28 07:34:12;;;;;;;9.57;2.20;;;12.00;91.10;;;;;;5136081;27;20138;-71
2022/04/28 07:36:38;;;;;;;8.80;2.23;;;12.10;91.90;;;;;;5135747;27;20117;-71
2022/04/28 07:39:03;;;;;;;10.30;2.30;;;12.10;92.30;;;;;;5134967;27;20539;-71
2022/04/28 07:41:29;;;;;;;8.70;2.40;;;12.50;92.50;;;;;;5135928;27;20478;-71
2022/04/28 07:43:55;;;;;;;14.73;2.30;;;12.80;91.40;;;;;;5135875;27;20047;-71
2022/04/28 07:46:21;;;;;;;11.33;2.20;;;12.90;90.10;;;;;;5135393;27;20293;-71
2022/04/28 07:48:47;;;;;;;8.60;2.27;;;12.80;89.90;;;;;;5135849;27;20051;-71
2022/04/28 07:51:13;;;;;;;11.73;2.23;;;12.80;89.90;;;;;;5135783;27;20116;-71
2022/04/28 07:53:39;;;;;;;12.07;2.30;;;13.10;90.00;;;;;;5135374;27;20310;-71
2022/04/28 07:56:13;;;;;;;12.10;2.83;;;13.20;88.00;;;;;;5135649;27;20031;-72
2022/04/28 07:58:40;;;;;;;8.45;2.22;;;12.90;86.50;;;;;;5134896;27;20112;-70
2022/04/28 08:01:06;;;;;;;7.77;2.23;;;12.80;88.50;;;;;;5135099;27;20069;-70
2022/04/28 08:03:32;;;;;;;8.47;2.20;;;12.70;89.90;;;;;;5134056;27;20757;-70
2022/04/28 08:05:58;;;;;;;8.77;2.47;;;12.60;89.90;;;;;;5135047;27;20391;-78
2022/04/28 08:08:24;;;;;;;11.73;2.90;;;12.50;89.90;;;;;;5135001;27;20281;-72
2022/04/28 08:10:50;;;;;;;8.47;2.40;;;12.40;90.30;;;;;;5135260;27;20047;-72
2022/04/28 08:13:16;;;;;;;11.47;2.27;;;12.30;89.40;;;;;;5135055;27;20130;-71
2022/04/28 08:15:42;;;;;;;7.73;1.70;;;12.30;90.10;;;;;;5133620;27;20276;-72
2022/04/28 08:18:08;;;;;;;10.73;2.50;;;12.30;90.10;;;;;;5134003;27;20314;-71
2022/04/28 08:20:34;;;;;;;10.60;2.20;;;12.20;90.60;;;;;;5135130;27;20205;-71
2022/04/28 08:23:00;;;;;;;10.07;2.07;;;12.20;90.70;;;;;;5134073;27;20773;-72
2022/04/28 08:25:26;;;;;;;8.63;2.50;;;12.10;91.20;;;;;;5134692;27;20276;-72
2022/04/28 08:27:52;;;;;;;10.77;2.20;;;12.10;91.40;;;;;;5134929;27;20065;-72
2022/04/28 08:30:17;;;;;;;10.80;2.73;;;12.10;92.30;;;;;;5133959;27;20043;-72
2022/04/28 08:32:43;;;;;;;11.37;2.20;;;12.00;92.30;;;;;;5134474;27;20082;-72
2022/04/28 08:35:09;;;;;;;9.70;2.47;;;12.10;92.50;;;;;;5134419;27;20047;-72
2022/04/28 08:37:36;;;;;;;13.97;3.10;;;12.20;92.90;;;;;;5134209;27;20395;-71
2022/04/28 08:40:03;;;;;;;10.50;2.40;;;12.20;92.50;;;;;;5134674;27;20120;-70
2022/04/28 08:42:31;;;;;;;16.87;2.60;;;12.20;92.50;;;;;;5134122;27;20463;-73
2022/04/28 08:44:59;;;;;;;7.90;2.50;;;12.20;92.60;;;;;;5134261;27;20744;-67
2022/04/28 08:47:26;;;;;;;10.33;2.23;;;12.20;92.90;;;;;;5133872;27;20300;-68
2022/04/28 08:49:51;;;;;;;7.73;2.30;;;12.30;93.10;;;;;;5132801;27;20764;-67
2022/04/28 08:52:18;;;;;;;12.37;2.10;;;12.30;92.70;;;;;;5134390;27;20329;-67
2022/04/28 08:54:45;;;;;;;9.37;2.30;;;12.40;92.50;;;;;;5133840;27;20043;-72
2022/04/28 08:57:13;;;;;;;13.07;3.30;;;12.40;92.10;;;;;;5133282;27;20341;-70
2022/04/28 08:59:39;;;;;;;8.30;2.60;;;12.50;91.90;;;;;;5133928;27;20276;-70
2022/04/28 09:02:05;;;;;;;8.87;2.00;;;12.50;91.30;;;;;;5132464;27;20305;-71
2022/04/28 09:04:31;;;;;;;8.77;2.33;;;12.40;91.00;;;;;;5133169;27;20273;-70
2022/04/28 09:06:58;;;;;;;11.33;2.07;;;12.50;90.70;;;;;;5133986;27;20298;-70
2022/04/28 09:09:27;;;;;;;10.87;2.47;;;12.50;91.00;;;;;;5133700;27;20501;-70
2022/04/28 09:11:58;;;;;;;15.00;2.67;;;12.40;91.00;;;;;;5134037;27;20276;-70
2022/04/28 09:14:24;;;;;;;9.70;3.03;;;12.40;91.50;;;;;;5133745;27;20336;-70
2022/04/28 09:16:59;;;;;;;11.57;2.70;;;12.30;90.90;;;;;;5132649;27;20292;-70
2022/04/28 09:19:34;;;;;;;9.63;2.90;;;12.40;91.00;;;;;;5134063;27;20338;-70
2022/04/28 09:22:05;;;;;;;10.95;2.70;;;12.50;91.90;;;;;;5133936;27;20047;-70
2022/04/28 09:24:31;;;;;;;10.73;2.17;;;12.40;91.10;;;;;;5133467;27;20474;-70
2022/04/28 09:26:57;;;;;;;10.63;2.10;;;12.50;91.10;;;;;;5133794;27;20326;-70
2022/04/28 09:29:27;;;;;;;8.60;2.30;;;12.50;91.30;;;;;;5133847;27;20425;-70
2022/04/28 09:31:53;;;;;;;7.13;2.07;;;12.60;90.50;;;;;;5133344;27;20488;-70
2022/04/28 09:34:21;;;;;;;10.03;2.20;;;12.40;90.30;;;;;;5133733;27;20356;-70
2022/04/28 09:36:48;;;;;;;13.03;2.43;;;12.50;90.60;;;;;;5133421;27;20074;-70
2022/04/28 09:42:29;;;;;;;10.40;2.73;;;12.50;90.50;;;;;;5133401;27;20363;-72
2022/04/28 09:44:54;;;;;;;12.93;3.03;;;12.50;88.20;;;;;;5133171;28;20276;-70
2022/04/28 09:47:21;;;;;;;10.30;2.33;;;12.30;88.60;;;;;;5131694;28;20296;-69
2022/04/28 09:49:52;;;;;;;13.00;2.67;;;12.30;89.10;;;;;;5132601;28;20281;-70
2022/04/28 09:52:30;;;;;;;13.07;2.23;;;12.40;89.30;;;;;;5132991;27;20277;-70
2022/04/28 09:54:59;;;;;;;11.27;2.53;;;12.50;86.80;;;;;;5131519;28;20356;-70
2022/04/28 09:57:26;;;;;;;8.60;2.20;;;12.30;88.20;;;;;;5114600;28;20289;-70
2022/04/28 09:59:56;;;;;;;13.50;2.97;;;12.40;90.10;;;;;;5132322;28;21197;-70
2022/04/28 10:02:25;;;;;;;13.50;2.73;;;12.50;90.10;;;;;;5132749;27;20881;-69
2022/04/28 10:04:52;;;;;;;9.43;2.00;;;12.60;90.20;;;;;;5131564;28;20857;-70
2022/04/28 10:07:18;;;;;;;10.60;2.33;;;12.70;89.60;;;;;;5133090;28;20284;-70
2022/04/28 10:09:49;;;;;;;10.17;2.27;;;12.80;88.40;;;;;;5132894;28;20269;-70
2022/04/28 10:12:24;;;;;;;12.93;3.17;;;13.00;88.10;;;;;;5133187;28;20284;-70
2022/04/28 10:14:50;;;;;;;;;;;13.00;84.90;;;;;;5133322;28;20273;-70
2022/04/28 10:17:21;;;;;;;10.13;2.33;;;13.00;84.90;;;;;;5133373;28;19920;-70
2022/04/28 10:19:52;;;;;;;11.00;2.73;;;13.20;87.10;;;;;;5132852;28;20046;-70
2022/04/28 10:22:24;;;;;;;12.23;2.83;;;13.30;84.40;;;;;;5131961;28;20283;-68
2022/04/28 10:33:19;;;;;;;10.77;2.70;;;13.40;81.10;;;;;;5136520;27;20828;-70
2022/04/28 10:35:48;;;;;;;11.33;2.60;;;13.40;80.80;;;;;;5136531;27;20276;-70
2022/04/28 10:38:38;;;;;;;13.93;2.93;;;13.30;77.90;;;;;;5136835;27;20371;-70
2022/04/28 10:41:11;;;;;;;13.40;2.70;;;13.20;79.40;;;;;;5136963;27;20280;-70
2022/04/28 10:43:43;;;;;;;8.93;2.60;;;13.10;81.00;;;;;;5136841;27;20281;-71
2022/04/28 10:46:08;;;;;;;12.93;2.97;;;13.10;80.60;;;;;;5136267;27;20301;-69
2022/04/28 10:48:42;;;;;;;10.17;2.57;;;13.20;81.90;;;;;;5136494;27;20368;-67
2022/04/28 10:51:22;;;;;;;9.70;2.63;;;13.20;83.50;;;;;;5136339;27;20081;-67
2022/04/28 10:54:21;;;;;;;13.60;2.70;;;13.30;83.50;;;;;;5133602;27;20284;-72
2022/04/28 10:56:53;;;;;;;15.93;2.53;;;13.30;82.90;;;;;;5136592;27;20721;-74
2022/04/28 10:59:31;;;;;;;9.13;2.20;;;13.20;83.30;;;;;;5136968;27;20364;-73
2022/04/28 11:02:10;;;;;;;11.90;3.23;;;13.10;84.00;;;;;;5136173;27;20283;-74
2022/04/28 11:04:37;;;;;;;11.43;2.40;;;13.10;85.10;;;;;;5136613;27;20277;-72
2022/04/28 11:07:09;;;;;;;9.17;2.43;;;13.20;84.70;;;;;;5136185;27;20354;-72
2022/04/28 11:09:38;;;;;;;8.87;2.50;;;13.30;83.40;;;;;;5135648;27;20760;-68
2022/04/28 11:12:18;;;;;;;11.37;3.20;;;13.10;82.30;;;;;;5136080;27;20269;-68
2022/04/28 11:14:59;;;;;;;10.53;3.03;;;13.10;81.50;;;;;;5135220;27;20633;-68
2022/04/28 11:17:28;;;;;;;13.90;2.50;;;13.10;84.20;;;;;;5136566;27;20277;-70
2022/04/28 11:19:54;;;;;;;9.33;2.57;;;13.20;84.20;;;;;;5135659;27;20783;-70
2022/04/28 11:22:22;;;;;;;12.07;3.10;;;13.20;84.50;;;;;;5136090;27;20272;-69
2022/04/28 11:24:49;;;;;;;12.57;2.97;;;13.20;83.20;;;;;;5134655;27;20277;-69
2022/04/28 11:27:23;;;;;;;11.73;3.00;;;13.20;83.90;;;;;;5135982;27;20361;-70
2022/04/28 11:29:50;;;;;;;11.00;2.80;;;13.20;84.30;;;;;;5135636;27;20721;-70
2022/04/28 11:32:17;;;;;;;10.50;2.77;;;13.00;84.80;;;;;;5135027;27;20042;-69
2022/04/28 11:34:44;;;;;;;12.37;2.60;;;13.00;85.40;;;;;;5134893;27;20633;-67
2022/04/28 11:37:14;;;;;;;8.97;2.40;;;12.90;85.30;;;;;;5134263;27;20324;-74
2022/04/28 11:39:42;;;;;;;11.83;2.97;;;13.00;86.10;;;;;;5135918;27;20632;-74
2022/04/28 11:42:10;;;;;;;11.07;2.40;;;12.90;86.20;;;;;;5135508;27;20299;-72
2022/04/28 11:44:44;;;;;;;10.87;3.03;;;12.90;87.40;;;;;;5135761;27;20269;-68
2022/04/28 11:47:10;;;;;;;10.88;2.60;;;13.00;86.60;;;;;;5135676;27;20379;-69
2022/04/28 11:49:40;;;;;;;9.23;2.60;;;13.00;87.20;;;;;;5135637;27;20165;-69
2022/04/28 11:52:21;;;;;;;13.50;2.53;;;13.00;86.50;;;;;;5135480;27;20095;-67
2022/04/28 11:55:04;;;;;;;12.73;2.60;;;13.00;86.10;;;;;;5135428;27;20281;-73
2022/04/28 11:57:31;;;;;;;16.20;3.00;;;12.90;87.40;;;;;;5135926;27;20280;-70
2022/04/28 11:59:58;;;;;;;13.87;2.90;;;13.00;89.00;;;;;;5134271;27;20307;-72
2022/04/28 12:02:29;;;;;;;12.77;2.23;;;13.00;88.60;;;;;;5135242;27;20740;-72
2022/04/28 12:04:55;;;;;;;13.93;2.83;;;13.00;87.00;;;;;;5135456;27;20319;-73
2022/04/28 12:07:26;;;;;;;13.40;2.70;;;13.00;88.00;;;;;;5135337;27;20300;-72
2022/04/28 12:15:26;;;;;;;9.07;2.60;;;13.50;87.80;;;;;;5135465;27;20134;-71
2022/04/28 12:21:32;;;;;;;12.90;3.30;;;13.40;82.60;;;;;;5134830;27;20754;-72
2022/04/28 12:23:58;;;;;;;17.10;3.80;;;13.40;84.00;;;;;;5133375;27;20291;-73
2022/04/28 12:26:25;;;;;;;14.37;3.07;;;13.40;83.80;;;;;;5134896;27;20349;-73
2022/04/28 12:28:52;;;;;;;9.63;2.67;;;13.30;84.30;;;;;;5134670;27;20771;-73
2022/04/28 12:31:30;;;;;;;10.33;2.80;;;13.40;84.60;;;;;;5134926;27;20280;-72
2022/04/28 12:33:56;;;;;;;10.60;3.13;;;13.30;84.00;;;;;;5134544;27;20295;-72
2022/04/28 12:36:22;;;;;;;9.27;2.67;;;13.20;83.90;;;;;;5134666;27;20842;-72
2022/04/28 12:38:51;;;;;;;9.10;2.50;;;13.10;84.60;;;;;;5134843;27;20363;-71
2022/04/28 12:41:27;;;;;;;13.63;2.87;;;13.00;85.20;;;;;;5134121;27;20768;-72
2022/04/28 12:44:00;;;;;;;15.07;3.10;;;13.00;84.80;;;;;;5133969;27;20360;-72
2022/04/28 12:46:32;;;;;;;10.37;3.13;;;13.10;84.90;;;;;;5134921;27;20702;-72
2022/04/28 12:49:01;;;;;;;12.63;2.87;;;13.00;86.00;;;;;;5133662;27;20791;-72
2022/04/28 12:51:28;;;;;;;12.47;2.70;;;13.10;86.60;;;;;;5134806;27;20283;-73
2022/04/28 12:54:14;;;;;;;8.37;2.00;;;13.00;85.00;;;;;;5134609;27;20296;-72
2022/04/28 12:56:45;;;;;;;7.73;2.33;;;13.10;85.40;;;;;;5134754;27;20273;-73
2022/04/28 12:59:14;;;;;;;9.87;2.47;;;13.10;85.00;;;;;;5134242;27;20276;-73
2022/04/28 13:01:46;;;;;;;10.77;2.93;;;13.00;85.00;;;;;;5134585;27;20277;-72
2022/04/28 13:04:18;;;;;;;12.07;2.60;;;12.90;86.50;;;;;;5134003;27;20277;-73
2022/04/28 13:06:45;;;;;;;10.70;2.87;;;13.00;88.00;;;;;;5134260;27;20775;-73
2022/04/28 13:09:13;;;;;;;13.03;2.90;;;12.90;86.00;;;;;;5133712;27;20792;-73
2022/04/28 13:11:40;;;;;;;12.83;2.60;;;12.90;87.20;;;;;;5134273;27;20280;-73
2022/04/28 13:14:12;;;;;;;13.80;3.07;;;12.80;88.50;;;;;;5133873;27;20284;-72
2022/04/28 13:16:39;;;;;;;12.50;2.83;;;12.90;88.30;;;;;;5133918;27;20705;-72
2022/04/28 13:19:05;;;;;;;11.57;2.40;;;12.80;88.20;;;;;;5133844;27;20312;-73
2022/04/28 13:21:32;;;;;;;12.73;2.57;;;12.80;89.30;;;;;;5133074;27;20281;-70
2022/04/28 13:23:58;;;;;;;10.47;2.30;;;12.90;89.70;;;;;;5134072;27;20277;-70
2022/04/28 13:26:26;;;;;;;14.50;4.30;;;12.90;89.90;;;;;;5133761;27;20426;-71